sensor_id;sensor_type;location;lat;lon;timestamp;P1;durP1;ratioP1;P2;durP2;ratioP2
32146;SDS011;32190;49.112;8.598;2023-04-25T00:05:34;0.60;;;0.60;;
32146;SDS011;32190;49.112;8.598;2023-04-25T00:11:27;0.57;;;0.57;;
32146;SDS011;32190;49.112;8.598;2023-04-25T00:17:17;0.60;;;0.60;;
32146;SDS011;32190;49.112;8.598;2023-04-25T00:23:09;0.70;;;0.70;;
32146;SDS011;32190;49.112;8.598;2023-04-25T00:29:00;0.50;;;0.50;;
32146;SDS011;32190;49.112;8.598;2023-04-25T00:35:02;0.80;;;0.80;;
32146;SDS011;32190;49.112;8.598;2023-04-25T00:40:53;0.60;;;0.60;;
32146;SDS011;32190;49.112;8.598;2023-04-25T00:46:46;0.80;;;0.80;;
32146;SDS011;32190;49.112;8.598;2023-04-25T00:52:38;0.70;;;0.70;;
32146;SDS011;32190;49.112;8.598;2023-04-25T00:58:44;1.20;;;1.00;;
32146;SDS011;32190;49.112;8.598;2023-04-25T01:04:35;0.77;;;0.77;;
32146;SDS011;32190;49.112;8.598;2023-04-25T01:10:26;2.85;;;1.05;;
32146;SDS011;32190;49.112;8.598;2023-04-25T01:16:17;0.80;;;0.80;;
32146;SDS011;32190;49.112;8.598;2023-04-25T01:22:13;1.85;;;0.98;;
32146;SDS011;32190;49.112;8.598;2023-04-25T01:28:10;0.80;;;0.80;;
32146;SDS011;32190;49.112;8.598;2023-04-25T01:34:01;0.80;;;0.80;;
32146;SDS011;32190;49.112;8.598;2023-04-25T01:39:52;1.08;;;0.77;;
32146;SDS011;32190;49.112;8.598;2023-04-25T01:45:45;0.80;;;0.80;;
32146;SDS011;32190;49.112;8.598;2023-04-25T01:51:36;0.80;;;0.80;;
32146;SDS011;32190;49.112;8.598;2023-04-25T01:57:27;0.70;;;0.70;;
32146;SDS011;32190;49.112;8.598;2023-04-25T02:03:18;0.90;;;0.90;;
32146;SDS011;32190;49.112;8.598;2023-04-25T02:09:14;0.90;;;0.90;;
32146;SDS011;32190;49.112;8.598;2023-04-25T02:15:05;0.80;;;0.80;;
32146;SDS011;32190;49.112;8.598;2023-04-25T02:20:57;0.90;;;0.90;;
32146;SDS011;32190;49.112;8.598;2023-04-25T02:26:51;1.20;;;1.10;;
32146;SDS011;32190;49.112;8.598;2023-04-25T02:32:42;0.80;;;0.80;;
32146;SDS011;32190;49.112;8.598;2023-04-25T02:38:33;0.98;;;0.98;;
32146;SDS011;32190;49.112;8.598;2023-04-25T02:44:23;1.02;;;1.02;;
32146;SDS011;32190;49.112;8.598;2023-04-25T02:50:14;1.17;;;1.08;;
32146;SDS011;32190;49.112;8.598;2023-04-25T02:56:04;0.75;;;0.75;;
32146;SDS011;32190;49.112;8.598;2023-04-25T03:01:55;1.00;;;1.00;;
32146;SDS011;32190;49.112;8.598;2023-04-25T03:07:46;1.00;;;1.00;;
32146;SDS011;32190;49.112;8.598;2023-04-25T03:13:36;0.88;;;0.88;;
32146;SDS011;32190;49.112;8.598;2023-04-25T03:19:27;0.98;;;0.98;;
32146;SDS011;32190;49.112;8.598;2023-04-25T03:25:17;1.38;;;1.33;;
32146;SDS011;32190;49.112;8.598;2023-04-25T03:31:08;1.17;;;1.17;;
32146;SDS011;32190;49.112;8.598;2023-04-25T03:36:59;0.95;;;0.95;;
32146;SDS011;32190;49.112;8.598;2023-04-25T03:42:50;0.82;;;0.82;;
32146;SDS011;32190;49.112;8.598;2023-04-25T03:48:40;0.77;;;0.77;;
32146;SDS011;32190;49.112;8.598;2023-04-25T03:54:31;1.27;;;1.05;;
32146;SDS011;32190;49.112;8.598;2023-04-25T04:00:21;1.20;;;1.10;;
32146;SDS011;32190;49.112;8.598;2023-04-25T04:06:12;1.35;;;1.25;;
32146;SDS011;32190;49.112;8.598;2023-04-25T04:12:03;0.85;;;0.85;;
32146;SDS011;32190;49.112;8.598;2023-04-25T04:17:59;1.50;;;1.40;;
32146;SDS011;32190;49.112;8.598;2023-04-25T04:23:56;0.90;;;0.90;;
32146;SDS011;32190;49.112;8.598;2023-04-25T04:29:47;0.88;;;0.88;;
32146;SDS011;32190;49.112;8.598;2023-04-25T05:07:28;1.60;;;1.50;;
32146;SDS011;32190;49.112;8.598;2023-04-25T05:13:19;1.58;;;1.48;;
32146;SDS011;32190;49.112;8.598;2023-04-25T05:19:09;1.42;;;1.33;;
32146;SDS011;32190;49.112;8.598;2023-04-25T05:25:00;1.60;;;1.50;;
32146;SDS011;32190;49.112;8.598;2023-04-25T05:30:51;1.38;;;1.17;;
32146;SDS011;32190;49.112;8.598;2023-04-25T05:36:42;1.30;;;1.10;;
32146;SDS011;32190;49.112;8.598;2023-04-25T05:42:32;0.77;;;0.77;;
32146;SDS011;32190;49.112;8.598;2023-04-25T05:48:23;1.25;;;1.25;;
32146;SDS011;32190;49.112;8.598;2023-04-25T05:54:13;1.00;;;1.00;;
32146;SDS011;32190;49.112;8.598;2023-04-25T06:00:04;1.05;;;1.05;;
32146;SDS011;32190;49.112;8.598;2023-04-25T06:05:58;3.05;;;1.38;;
32146;SDS011;32190;49.112;8.598;2023-04-25T06:11:49;1.50;;;1.40;;
32146;SDS011;32190;49.112;8.598;2023-04-25T06:17:40;1.30;;;1.20;;
32146;SDS011;32190;49.112;8.598;2023-04-25T06:23:30;2.35;;;1.30;;
32146;SDS011;32190;49.112;8.598;2023-04-25T06:29:21;1.80;;;1.42;;
32146;SDS011;32190;49.112;8.598;2023-04-25T06:35:12;1.73;;;1.20;;
32146;SDS011;32190;49.112;8.598;2023-04-25T06:41:03;2.45;;;1.42;;
32146;SDS011;32190;49.112;8.598;2023-04-25T06:46:53;1.50;;;1.35;;
32146;SDS011;32190;49.112;8.598;2023-04-25T06:52:44;1.45;;;1.35;;
32146;SDS011;32190;49.112;8.598;2023-04-25T06:58:35;1.58;;;1.48;;
32146;SDS011;32190;49.112;8.598;2023-04-25T07:04:25;2.28;;;2.08;;
32146;SDS011;32190;49.112;8.598;2023-04-25T07:10:16;2.22;;;1.73;;
32146;SDS011;32190;49.112;8.598;2023-04-25T07:16:06;1.55;;;1.42;;
32146;SDS011;32190;49.112;8.598;2023-04-25T07:21:57;3.40;;;1.67;;
32146;SDS011;32190;49.112;8.598;2023-04-25T07:27:48;1.70;;;1.60;;
32146;SDS011;32190;49.112;8.598;2023-04-25T07:33:38;1.92;;;1.80;;
32146;SDS011;32190;49.112;8.598;2023-04-25T07:39:29;1.67;;;1.58;;
32146;SDS011;32190;49.112;8.598;2023-04-25T07:45:19;1.75;;;1.65;;
32146;SDS011;32190;49.112;8.598;2023-04-25T07:51:10;2.30;;;2.10;;
32146;SDS011;32190;49.112;8.598;2023-04-25T07:57:01;2.40;;;1.92;;
32146;SDS011;32190;49.112;8.598;2023-04-25T08:02:57;2.30;;;2.17;;
32146;SDS011;32190;49.112;8.598;2023-04-25T08:08:56;2.40;;;2.20;;
32146;SDS011;32190;49.112;8.598;2023-04-25T08:14:47;2.92;;;2.08;;
32146;SDS011;32190;49.112;8.598;2023-04-25T08:20:37;4.07;;;3.03;;
32146;SDS011;32190;49.112;8.598;2023-04-25T08:26:28;2.50;;;2.30;;
32146;SDS011;32190;49.112;8.598;2023-04-25T08:32:19;2.58;;;2.38;;
32146;SDS011;32190;49.112;8.598;2023-04-25T08:38:11;2.00;;;1.73;;
32146;SDS011;32190;49.112;8.598;2023-04-25T08:44:01;2.35;;;2.20;;
32146;SDS011;32190;49.112;8.598;2023-04-25T08:49:59;1.90;;;1.77;;
32146;SDS011;32190;49.112;8.598;2023-04-25T08:55:55;2.38;;;2.17;;
32146;SDS011;32190;49.112;8.598;2023-04-25T09:01:47;2.50;;;2.03;;
32146;SDS011;32190;49.112;8.598;2023-04-25T09:07:39;2.25;;;2.03;;
32146;SDS011;32190;49.112;8.598;2023-04-25T09:13:30;4.25;;;2.25;;
32146;SDS011;32190;49.112;8.598;2023-04-25T09:19:24;3.08;;;2.03;;
32146;SDS011;32190;49.112;8.598;2023-04-25T09:25:16;3.40;;;2.42;;
32146;SDS011;32190;49.112;8.598;2023-04-25T09:43:56;4.78;;;3.38;;
32146;SDS011;32190;49.112;8.598;2023-04-25T09:49:48;5.10;;;2.38;;
32146;SDS011;32190;49.112;8.598;2023-04-25T09:55:39;4.55;;;2.63;;
32146;SDS011;32190;49.112;8.598;2023-04-25T10:01:32;4.25;;;2.38;;
32146;SDS011;32190;49.112;8.598;2023-04-25T10:07:23;5.07;;;2.67;;
32146;SDS011;32190;49.112;8.598;2023-04-25T10:13:18;3.28;;;2.78;;
32146;SDS011;32190;49.112;8.598;2023-04-25T10:19:10;3.13;;;2.28;;
32146;SDS011;32190;49.112;8.598;2023-04-25T10:25:01;4.32;;;2.05;;
32146;SDS011;32190;49.112;8.598;2023-04-25T10:31:00;4.20;;;2.50;;
32146;SDS011;32190;49.112;8.598;2023-04-25T10:36:55;4.00;;;2.40;;
32146;SDS011;32190;49.112;8.598;2023-04-25T10:42:45;5.05;;;2.97;;
32146;SDS011;32190;49.112;8.598;2023-04-25T10:48:36;2.60;;;2.40;;
32146;SDS011;32190;49.112;8.598;2023-04-25T10:54:27;4.22;;;2.95;;
32146;SDS011;32190;49.112;8.598;2023-04-25T11:00:18;4.20;;;2.58;;
32146;SDS011;32190;49.112;8.598;2023-04-25T11:12:36;2.33;;;2.13;;
32146;SDS011;32190;49.112;8.598;2023-04-25T11:18:27;4.70;;;2.83;;
32146;SDS011;32190;49.112;8.598;2023-04-25T11:24:17;2.63;;;2.42;;
32146;SDS011;32190;49.112;8.598;2023-04-25T11:30:14;2.63;;;2.42;;
32146;SDS011;32190;49.112;8.598;2023-04-25T11:36:06;3.67;;;2.60;;
32146;SDS011;32190;49.112;8.598;2023-04-25T11:41:57;2.88;;;2.63;;
32146;SDS011;32190;49.112;8.598;2023-04-25T11:47:47;4.07;;;2.55;;
32146;SDS011;32190;49.112;8.598;2023-04-25T11:53:44;3.95;;;2.25;;
32146;SDS011;32190;49.112;8.598;2023-04-25T11:59:34;6.20;;;2.50;;
32146;SDS011;32190;49.112;8.598;2023-04-25T12:05:26;2.50;;;2.30;;
32146;SDS011;32190;49.112;8.598;2023-04-25T12:11:21;4.68;;;2.40;;
32146;SDS011;32190;49.112;8.598;2023-04-25T12:17:12;3.17;;;2.30;;
32146;SDS011;32190;49.112;8.598;2023-04-25T12:23:05;3.90;;;2.38;;
32146;SDS011;32190;49.112;8.598;2023-04-25T12:28:57;2.85;;;2.28;;
32146;SDS011;32190;49.112;8.598;2023-04-25T12:34:48;3.05;;;2.72;;
32146;SDS011;32190;49.112;8.598;2023-04-25T12:40:41;2.15;;;1.90;;
32146;SDS011;32190;49.112;8.598;2023-04-25T12:46:32;2.50;;;2.30;;
32146;SDS011;32190;49.112;8.598;2023-04-25T12:52:23;3.90;;;2.10;;
32146;SDS011;32190;49.112;8.598;2023-04-25T12:58:14;4.13;;;2.42;;
32146;SDS011;32190;49.112;8.598;2023-04-25T13:04:14;3.03;;;2.13;;
32146;SDS011;32190;49.112;8.598;2023-04-25T13:10:08;4.05;;;1.65;;
32146;SDS011;32190;49.112;8.598;2023-04-25T13:16:15;3.20;;;2.10;;
32146;SDS011;32190;49.112;8.598;2023-04-25T13:22:06;2.83;;;2.45;;
32146;SDS011;32190;49.112;8.598;2023-04-25T13:27:57;2.08;;;1.90;;
32146;SDS011;32190;49.112;8.598;2023-04-25T13:33:54;2.38;;;1.85;;
32146;SDS011;32190;49.112;8.598;2023-04-25T13:39:45;2.42;;;2.00;;
32146;SDS011;32190;49.112;8.598;2023-04-25T13:45:36;2.35;;;1.95;;
32146;SDS011;32190;49.112;8.598;2023-04-25T13:51:29;3.60;;;2.28;;
32146;SDS011;32190;49.112;8.598;2023-04-25T13:57:23;3.22;;;1.88;;
32146;SDS011;32190;49.112;8.598;2023-04-25T14:03:27;2.13;;;1.92;;
32146;SDS011;32190;49.112;8.598;2023-04-25T14:09:18;1.90;;;1.67;;
32146;SDS011;32190;49.112;8.598;2023-04-25T14:15:10;2.58;;;2.00;;
32146;SDS011;32190;49.112;8.598;2023-04-25T14:21:04;2.95;;;1.88;;
32146;SDS011;32190;49.112;8.598;2023-04-25T14:26:55;2.50;;;1.85;;
32146;SDS011;32190;49.112;8.598;2023-04-25T14:32:56;1.73;;;1.60;;
32146;SDS011;32190;49.112;8.598;2023-04-25T14:38:46;1.70;;;1.55;;
32146;SDS011;32190;49.112;8.598;2023-04-25T14:44:37;2.03;;;1.60;;
32146;SDS011;32190;49.112;8.598;2023-04-25T14:50:28;2.05;;;1.90;;
32146;SDS011;32190;49.112;8.598;2023-04-25T14:56:19;1.63;;;1.50;;
32146;SDS011;32190;49.112;8.598;2023-04-25T15:02:10;2.88;;;2.42;;
32146;SDS011;32190;49.112;8.598;2023-04-25T15:08:07;2.72;;;1.63;;
32146;SDS011;32190;49.112;8.598;2023-04-25T15:13:57;2.38;;;1.92;;
32146;SDS011;32190;49.112;8.598;2023-04-25T15:19:48;1.50;;;1.40;;
32146;SDS011;32190;49.112;8.598;2023-04-25T15:26:13;2.97;;;1.70;;
32146;SDS011;32190;49.112;8.598;2023-04-25T15:32:07;2.13;;;1.48;;
32146;SDS011;32190;49.112;8.598;2023-04-25T15:38:15;2.92;;;2.00;;
32146;SDS011;32190;49.112;8.598;2023-04-25T15:44:19;3.72;;;1.95;;
32146;SDS011;32190;49.112;8.598;2023-04-25T15:50:10;2.30;;;1.88;;
32146;SDS011;32190;49.112;8.598;2023-04-25T15:56:01;1.92;;;1.70;;
32146;SDS011;32190;49.112;8.598;2023-04-25T16:01:53;1.42;;;1.33;;
32146;SDS011;32190;49.112;8.598;2023-04-25T16:07:44;2.33;;;1.48;;
32146;SDS011;32190;49.112;8.598;2023-04-25T16:13:35;1.25;;;1.13;;
32146;SDS011;32190;49.112;8.598;2023-04-25T16:19:26;2.22;;;1.27;;
32146;SDS011;32190;49.112;8.598;2023-04-25T16:25:16;2.17;;;1.23;;
32146;SDS011;32190;49.112;8.598;2023-04-25T16:31:07;1.42;;;1.33;;
32146;SDS011;32190;49.112;8.598;2023-04-25T16:36:58;2.63;;;1.27;;
32146;SDS011;32190;49.112;8.598;2023-04-25T16:42:48;1.60;;;1.50;;
32146;SDS011;32190;49.112;8.598;2023-04-25T16:48:39;1.88;;;1.13;;
32146;SDS011;32190;49.112;8.598;2023-04-25T16:54:29;1.48;;;1.10;;
32146;SDS011;32190;49.112;8.598;2023-04-25T17:00:20;1.00;;;1.00;;
32146;SDS011;32190;49.112;8.598;2023-04-25T17:06:11;1.70;;;1.25;;
32146;SDS011;32190;49.112;8.598;2023-04-25T17:12:02;1.80;;;1.60;;
32146;SDS011;32190;49.112;8.598;2023-04-25T17:17:55;2.25;;;1.20;;
32146;SDS011;32190;49.112;8.598;2023-04-25T17:23:46;1.15;;;1.10;;
32146;SDS011;32190;49.112;8.598;2023-04-25T17:29:39;1.30;;;1.20;;
32146;SDS011;32190;49.112;8.598;2023-04-25T17:35:30;2.63;;;1.70;;
32146;SDS011;32190;49.112;8.598;2023-04-25T17:41:22;1.80;;;1.70;;
32146;SDS011;32190;49.112;8.598;2023-04-25T17:47:13;3.17;;;1.60;;
32146;SDS011;32190;49.112;8.598;2023-04-25T17:53:04;1.60;;;1.50;;
32146;SDS011;32190;49.112;8.598;2023-04-25T17:58:54;3.00;;;1.85;;
32146;SDS011;32190;49.112;8.598;2023-04-25T18:04:45;1.30;;;1.17;;
32146;SDS011;32190;49.112;8.598;2023-04-25T18:10:36;2.45;;;1.55;;
32146;SDS011;32190;49.112;8.598;2023-04-25T18:16:27;1.15;;;1.08;;
32146;SDS011;32190;49.112;8.598;2023-04-25T18:22:18;3.25;;;2.38;;
32146;SDS011;32190;49.112;8.598;2023-04-25T18:28:09;2.10;;;1.92;;
32146;SDS011;32190;49.112;8.598;2023-04-25T18:34:00;3.40;;;1.30;;
32146;SDS011;32190;49.112;8.598;2023-04-25T18:39:51;2.10;;;1.90;;
32146;SDS011;32190;49.112;8.598;2023-04-25T18:45:41;1.13;;;1.13;;
32146;SDS011;32190;49.112;8.598;2023-04-25T18:51:32;2.17;;;1.98;;
32146;SDS011;32190;49.112;8.598;2023-04-25T18:57:22;3.22;;;1.92;;
32146;SDS011;32190;49.112;8.598;2023-04-25T19:03:13;2.70;;;1.80;;
32146;SDS011;32190;49.112;8.598;2023-04-25T19:09:04;2.92;;;1.77;;
32146;SDS011;32190;49.112;8.598;2023-04-25T19:14:54;1.27;;;1.17;;
32146;SDS011;32190;49.112;8.598;2023-04-25T19:20:45;2.50;;;1.30;;
32146;SDS011;32190;49.112;8.598;2023-04-25T19:26:36;1.30;;;1.20;;
32146;SDS011;32190;49.112;8.598;2023-04-25T19:32:27;2.03;;;1.60;;
32146;SDS011;32190;49.112;8.598;2023-04-25T19:38:17;1.15;;;1.13;;
32146;SDS011;32190;49.112;8.598;2023-04-25T19:44:08;1.35;;;1.25;;
32146;SDS011;32190;49.112;8.598;2023-04-25T19:49:59;1.80;;;1.70;;
32146;SDS011;32190;49.112;8.598;2023-04-25T19:55:50;1.50;;;1.40;;
32146;SDS011;32190;49.112;8.598;2023-04-25T20:01:40;2.15;;;1.90;;
32146;SDS011;32190;49.112;8.598;2023-04-25T20:07:31;1.52;;;1.42;;
32146;SDS011;32190;49.112;8.598;2023-04-25T20:13:22;2.70;;;1.45;;
32146;SDS011;32190;49.112;8.598;2023-04-25T20:19:12;1.33;;;1.23;;
32146;SDS011;32190;49.112;8.598;2023-04-25T20:25:03;1.80;;;1.67;;
32146;SDS011;32190;49.112;8.598;2023-04-25T20:30:58;1.20;;;1.10;;
32146;SDS011;32190;49.112;8.598;2023-04-25T20:36:49;1.38;;;1.27;;
32146;SDS011;32190;49.112;8.598;2023-04-25T20:42:41;1.55;;;1.45;;
32146;SDS011;32190;49.112;8.598;2023-04-25T20:48:32;3.08;;;1.83;;
32146;SDS011;32190;49.112;8.598;2023-04-25T20:54:22;2.15;;;1.80;;
32146;SDS011;32190;49.112;8.598;2023-04-25T21:00:16;2.03;;;1.83;;
32146;SDS011;32190;49.112;8.598;2023-04-25T21:06:18;1.70;;;1.60;;
32146;SDS011;32190;49.112;8.598;2023-04-25T21:12:08;1.77;;;1.42;;
32146;SDS011;32190;49.112;8.598;2023-04-25T21:17:59;1.58;;;1.48;;
32146;SDS011;32190;49.112;8.598;2023-04-25T21:23:50;2.28;;;1.88;;
32146;SDS011;32190;49.112;8.598;2023-04-25T21:29:41;1.60;;;1.50;;
32146;SDS011;32190;49.112;8.598;2023-04-25T21:35:32;2.45;;;2.00;;
32146;SDS011;32190;49.112;8.598;2023-04-25T21:41:23;3.25;;;1.75;;
32146;SDS011;32190;49.112;8.598;2023-04-25T21:47:15;1.90;;;1.80;;
32146;SDS011;32190;49.112;8.598;2023-04-25T21:53:05;1.75;;;1.65;;
32146;SDS011;32190;49.112;8.598;2023-04-25T21:58:57;2.20;;;1.85;;
32146;SDS011;32190;49.112;8.598;2023-04-25T22:04:48;1.55;;;1.42;;
32146;SDS011;32190;49.112;8.598;2023-04-25T22:10:41;1.85;;;1.67;;
32146;SDS011;32190;49.112;8.598;2023-04-25T22:16:31;2.15;;;2.05;;
32146;SDS011;32190;49.112;8.598;2023-04-25T22:22:22;3.60;;;1.98;;
32146;SDS011;32190;49.112;8.598;2023-04-25T22:28:13;1.80;;;1.70;;
32146;SDS011;32190;49.112;8.598;2023-04-25T22:34:04;1.58;;;1.23;;
32146;SDS011;32190;49.112;8.598;2023-04-25T22:39:54;1.55;;;1.45;;
32146;SDS011;32190;49.112;8.598;2023-04-25T22:45:48;2.92;;;1.75;;
32146;SDS011;32190;49.112;8.598;2023-04-25T22:51:38;1.67;;;1.58;;
32146;SDS011;32190;49.112;8.598;2023-04-25T22:57:29;2.00;;;1.90;;
32146;SDS011;32190;49.112;8.598;2023-04-25T23:03:20;2.13;;;1.83;;
32146;SDS011;32190;49.112;8.598;2023-04-25T23:09:11;3.15;;;2.10;;
32146;SDS011;32190;49.112;8.598;2023-04-25T23:15:02;2.78;;;1.92;;
32146;SDS011;32190;49.112;8.598;2023-04-25T23:20:54;2.00;;;1.60;;
32146;SDS011;32190;49.112;8.598;2023-04-25T23:26:44;1.70;;;1.55;;
32146;SDS011;32190;49.112;8.598;2023-04-25T23:32:36;1.65;;;1.55;;
32146;SDS011;32190;49.112;8.598;2023-04-25T23:38:27;2.28;;;2.03;;
32146;SDS011;32190;49.112;8.598;2023-04-25T23:44:17;2.35;;;2.15;;
32146;SDS011;32190;49.112;8.598;2023-04-25T23:50:08;1.88;;;1.67;;
32146;SDS011;32190;49.112;8.598;2023-04-25T23:55:59;1.95;;;1.70;;
